sensor_id;sensor_type;location;lat;lon;timestamp;P1;durP1;ratioP1;P2;durP2;ratioP2
14738;SDS011;7461;52.440;13.540;2024-02-16T00:00:31;17.15;;;15.93;;
14738;SDS011;7461;52.440;13.540;2024-02-16T00:03:09;17.13;;;15.77;;
14738;SDS011;7461;52.440;13.540;2024-02-16T00:05:43;20.13;;;18.63;;
14738;SDS011;7461;52.440;13.540;2024-02-16T00:08:20;19.58;;;18.17;;
14738;SDS011;7461;52.440;13.540;2024-02-16T00:10:53;21.45;;;19.55;;
14738;SDS011;7461;52.440;13.540;2024-02-16T00:13:23;18.45;;;17.00;;
14738;SDS011;7461;52.440;13.540;2024-02-16T00:15:53;19.83;;;18.25;;
14738;SDS011;7461;52.440;13.540;2024-02-16T00:18:26;19.90;;;18.40;;
14738;SDS011;7461;52.440;13.540;2024-02-16T00:20:54;19.70;;;18.17;;
14738;SDS011;7461;52.440;13.540;2024-02-16T00:23:38;19.40;;;18.10;;
14738;SDS011;7461;52.440;13.540;2024-02-16T00:26:13;21.77;;;19.90;;
14738;SDS011;7461;52.440;13.540;2024-02-16T00:28:44;21.30;;;19.67;;
14738;SDS011;7461;52.440;13.540;2024-02-16T00:31:27;20.20;;;18.48;;
14738;SDS011;7461;52.440;13.540;2024-02-16T00:34:04;24.08;;;22.25;;
14738;SDS011;7461;52.440;13.540;2024-02-16T00:36:37;21.10;;;19.45;;
14738;SDS011;7461;52.440;13.540;2024-02-16T00:39:04;22.05;;;20.35;;
14738;SDS011;7461;52.440;13.540;2024-02-16T00:41:35;21.15;;;19.60;;
14738;SDS011;7461;52.440;13.540;2024-02-16T00:44:06;20.48;;;19.00;;
14738;SDS011;7461;52.440;13.540;2024-02-16T00:46:40;22.75;;;21.20;;
14738;SDS011;7461;52.440;13.540;2024-02-16T00:49:12;22.30;;;20.75;;
14738;SDS011;7461;52.440;13.540;2024-02-16T00:51:42;24.88;;;23.00;;
14738;SDS011;7461;52.440;13.540;2024-02-16T00:54:12;24.50;;;22.58;;
14738;SDS011;7461;52.440;13.540;2024-02-16T00:56:43;25.98;;;23.80;;
14738;SDS011;7461;52.440;13.540;2024-02-16T00:59:17;23.67;;;21.65;;
14738;SDS011;7461;52.440;13.540;2024-02-16T01:01:46;27.08;;;24.73;;
14738;SDS011;7461;52.440;13.540;2024-02-16T01:04:14;26.98;;;25.05;;
14738;SDS011;7461;52.440;13.540;2024-02-16T01:06:49;26.65;;;24.83;;
14738;SDS011;7461;52.440;13.540;2024-02-16T01:09:18;26.27;;;24.23;;
14738;SDS011;7461;52.440;13.540;2024-02-16T01:12:02;29.10;;;26.65;;
14738;SDS011;7461;52.440;13.540;2024-02-16T01:14:32;27.80;;;25.88;;
14738;SDS011;7461;52.440;13.540;2024-02-16T01:17:03;29.60;;;27.08;;
14738;SDS011;7461;52.440;13.540;2024-02-16T01:19:33;27.02;;;25.02;;
14738;SDS011;7461;52.440;13.540;2024-02-16T01:22:08;27.23;;;24.92;;
14738;SDS011;7461;52.440;13.540;2024-02-16T01:24:44;27.05;;;25.15;;
14738;SDS011;7461;52.440;13.540;2024-02-16T01:27:27;29.55;;;27.23;;
14738;SDS011;7461;52.440;13.540;2024-02-16T01:30:06;32.33;;;29.73;;
14738;SDS011;7461;52.440;13.540;2024-02-16T01:32:34;28.35;;;26.27;;
14738;SDS011;7461;52.440;13.540;2024-02-16T01:35:10;32.25;;;29.85;;
14738;SDS011;7461;52.440;13.540;2024-02-16T01:37:39;30.25;;;28.17;;
14738;SDS011;7461;52.440;13.540;2024-02-16T01:40:11;31.67;;;29.05;;
14738;SDS011;7461;52.440;13.540;2024-02-16T01:42:52;33.95;;;31.33;;
14738;SDS011;7461;52.440;13.540;2024-02-16T01:45:22;30.65;;;28.42;;
14738;SDS011;7461;52.440;13.540;2024-02-16T01:47:52;31.35;;;28.90;;
14738;SDS011;7461;52.440;13.540;2024-02-16T01:50:32;31.75;;;29.23;;
14738;SDS011;7461;52.440;13.540;2024-02-16T01:53:03;34.38;;;31.80;;
14738;SDS011;7461;52.440;13.540;2024-02-16T01:55:32;33.15;;;30.65;;
14738;SDS011;7461;52.440;13.540;2024-02-16T01:58:07;32.53;;;30.13;;
14738;SDS011;7461;52.440;13.540;2024-02-16T02:00:43;34.00;;;31.50;;
14738;SDS011;7461;52.440;13.540;2024-02-16T02:03:14;34.95;;;32.35;;
14738;SDS011;7461;52.440;13.540;2024-02-16T02:05:47;35.47;;;32.63;;
14738;SDS011;7461;52.440;13.540;2024-02-16T02:08:16;33.10;;;30.50;;
14738;SDS011;7461;52.440;13.540;2024-02-16T02:10:46;33.80;;;31.15;;
14738;SDS011;7461;52.440;13.540;2024-02-16T02:13:23;32.95;;;30.33;;
14738;SDS011;7461;52.440;13.540;2024-02-16T02:16:02;33.97;;;31.60;;
14738;SDS011;7461;52.440;13.540;2024-02-16T02:18:39;37.17;;;34.28;;
14738;SDS011;7461;52.440;13.540;2024-02-16T02:21:10;37.05;;;34.45;;
14738;SDS011;7461;52.440;13.540;2024-02-16T02:23:48;35.58;;;32.85;;
14738;SDS011;7461;52.440;13.540;2024-02-16T02:26:21;33.45;;;31.00;;
14738;SDS011;7461;52.440;13.540;2024-02-16T02:29:00;35.83;;;32.90;;
14738;SDS011;7461;52.440;13.540;2024-02-16T02:31:33;36.85;;;33.80;;
14738;SDS011;7461;52.440;13.540;2024-02-16T02:34:08;35.38;;;32.53;;
14738;SDS011;7461;52.440;13.540;2024-02-16T02:36:36;37.75;;;34.70;;
14738;SDS011;7461;52.440;13.540;2024-02-16T02:39:11;35.72;;;32.95;;
14738;SDS011;7461;52.440;13.540;2024-02-16T02:41:42;33.22;;;30.83;;
14738;SDS011;7461;52.440;13.540;2024-02-16T02:46:57;32.03;;;29.67;;
14738;SDS011;7461;52.440;13.540;2024-02-16T02:49:26;33.55;;;31.15;;
14738;SDS011;7461;52.440;13.540;2024-02-16T02:51:54;32.22;;;29.85;;
14738;SDS011;7461;52.440;13.540;2024-02-16T02:54:44;34.50;;;31.95;;
14738;SDS011;7461;52.440;13.540;2024-02-16T02:57:26;32.38;;;29.65;;
14738;SDS011;7461;52.440;13.540;2024-02-16T03:04:18;33.30;;;30.55;;
14738;SDS011;7461;52.440;13.540;2024-02-16T03:06:04;32.15;;;29.65;;
14738;SDS011;7461;52.440;13.540;2024-02-16T03:08:35;33.90;;;30.95;;
14738;SDS011;7461;52.440;13.540;2024-02-16T03:11:06;33.13;;;30.40;;
14738;SDS011;7461;52.440;13.540;2024-02-16T03:13:42;31.92;;;29.40;;
14738;SDS011;7461;52.440;13.540;2024-02-16T03:16:11;32.53;;;30.08;;
14738;SDS011;7461;52.440;13.540;2024-02-16T03:19:03;32.80;;;30.40;;
14738;SDS011;7461;52.440;13.540;2024-02-16T03:21:34;33.38;;;30.98;;
14738;SDS011;7461;52.440;13.540;2024-02-16T03:26:48;35.05;;;32.22;;
14738;SDS011;7461;52.440;13.540;2024-02-16T03:29:25;30.38;;;27.42;;
14738;SDS011;7461;52.440;13.540;2024-02-16T03:31:58;31.65;;;29.35;;
14738;SDS011;7461;52.440;13.540;2024-02-16T03:34:25;30.40;;;27.83;;
14738;SDS011;7461;52.440;13.540;2024-02-16T03:36:53;33.17;;;30.55;;
14738;SDS011;7461;52.440;13.540;2024-02-16T03:39:24;31.02;;;28.65;;
